sensor_id;sensor_type;location;lat;lon;timestamp;P1;durP1;ratioP1;P2;durP2;ratioP2
73113;SDS011;61301;51.956;5.876;2023-02-15T00:01:44;11.60;;;8.23;;
73113;SDS011;61301;51.956;5.876;2023-02-15T00:04:15;10.13;;;7.55;;
73113;SDS011;61301;51.956;5.876;2023-02-15T00:06:45;7.88;;;5.43;;
73113;SDS011;61301;51.956;5.876;2023-02-15T00:09:12;8.10;;;5.35;;
73113;SDS011;61301;51.956;5.876;2023-02-15T00:11:38;7.25;;;4.95;;
73113;SDS011;61301;51.956;5.876;2023-02-15T00:14:09;7.43;;;4.32;;
73113;SDS011;61301;51.956;5.876;2023-02-15T00:16:41;5.53;;;3.70;;
73113;SDS011;61301;51.956;5.876;2023-02-15T00:19:09;4.05;;;3.33;;
73113;SDS011;61301;51.956;5.876;2023-02-15T00:21:36;6.28;;;4.05;;
73113;SDS011;61301;51.956;5.876;2023-02-15T00:24:04;6.32;;;3.88;;
73113;SDS011;61301;51.956;5.876;2023-02-15T00:26:32;4.47;;;3.20;;
73113;SDS011;61301;51.956;5.876;2023-02-15T00:28:59;5.75;;;4.57;;
73113;SDS011;61301;51.956;5.876;2023-02-15T00:31:29;6.00;;;4.00;;
73113;SDS011;61301;51.956;5.876;2023-02-15T00:36:41;5.93;;;4.07;;
73113;SDS011;61301;51.956;5.876;2023-02-15T00:39:07;6.82;;;4.40;;
73113;SDS011;61301;51.956;5.876;2023-02-15T00:41:35;8.85;;;6.28;;
73113;SDS011;61301;51.956;5.876;2023-02-15T00:44:01;13.77;;;8.30;;
73113;SDS011;61301;51.956;5.876;2023-02-15T00:46:29;8.38;;;6.65;;
73113;SDS011;61301;51.956;5.876;2023-02-15T00:48:55;8.98;;;6.47;;
73113;SDS011;61301;51.956;5.876;2023-02-15T00:51:21;7.57;;;5.47;;
73113;SDS011;61301;51.956;5.876;2023-02-15T00:53:48;7.63;;;5.50;;
73113;SDS011;61301;51.956;5.876;2023-02-15T00:56:14;10.32;;;7.18;;
73113;SDS011;61301;51.956;5.876;2023-02-15T00:58:44;9.48;;;6.40;;
73113;SDS011;61301;51.956;5.876;2023-02-15T01:01:11;9.02;;;6.32;;
73113;SDS011;61301;51.956;5.876;2023-02-15T01:03:39;11.07;;;8.13;;
73113;SDS011;61301;51.956;5.876;2023-02-15T01:06:08;8.90;;;6.00;;
73113;SDS011;61301;51.956;5.876;2023-02-15T01:08:42;7.90;;;5.00;;
73113;SDS011;61301;51.956;5.876;2023-02-15T01:11:12;10.98;;;6.47;;
73113;SDS011;61301;51.956;5.876;2023-02-15T01:13:40;7.97;;;5.93;;
73113;SDS011;61301;51.956;5.876;2023-02-15T01:16:07;9.40;;;5.65;;
73113;SDS011;61301;51.956;5.876;2023-02-15T01:18:34;6.22;;;4.53;;
73113;SDS011;61301;51.956;5.876;2023-02-15T01:21:08;8.93;;;5.38;;
73113;SDS011;61301;51.956;5.876;2023-02-15T01:23:35;6.63;;;4.60;;
73113;SDS011;61301;51.956;5.876;2023-02-15T01:26:02;10.93;;;7.95;;
73113;SDS011;61301;51.956;5.876;2023-02-15T01:28:28;7.95;;;5.43;;
73113;SDS011;61301;51.956;5.876;2023-02-15T01:30:54;6.93;;;5.13;;
73113;SDS011;61301;51.956;5.876;2023-02-15T01:33:20;5.80;;;4.43;;
73113;SDS011;61301;51.956;5.876;2023-02-15T01:35:46;5.72;;;4.03;;
73113;SDS011;61301;51.956;5.876;2023-02-15T01:38:12;4.68;;;3.50;;
73113;SDS011;61301;51.956;5.876;2023-02-15T01:40:39;9.30;;;6.55;;
73113;SDS011;61301;51.956;5.876;2023-02-15T01:43:09;25.85;;;16.42;;
73113;SDS011;61301;51.956;5.876;2023-02-15T01:45:37;16.27;;;10.48;;
73113;SDS011;61301;51.956;5.876;2023-02-15T01:48:06;8.60;;;7.03;;
73113;SDS011;61301;51.956;5.876;2023-02-15T01:50:50;8.82;;;5.68;;
73113;SDS011;61301;51.956;5.876;2023-02-15T01:56:22;8.02;;;5.57;;
73113;SDS011;61301;51.956;5.876;2023-02-15T01:58:51;7.47;;;5.30;;
73113;SDS011;61301;51.956;5.876;2023-02-15T02:01:19;5.47;;;3.97;;
73113;SDS011;61301;51.956;5.876;2023-02-15T02:06:33;5.45;;;4.05;;
73113;SDS011;61301;51.956;5.876;2023-02-15T02:09:01;7.43;;;3.85;;
73113;SDS011;61301;51.956;5.876;2023-02-15T02:11:28;5.80;;;4.03;;
73113;SDS011;61301;51.956;5.876;2023-02-15T02:13:54;5.32;;;3.25;;
73113;SDS011;61301;51.956;5.876;2023-02-15T02:19:36;6.38;;;4.00;;
73113;SDS011;61301;51.956;5.876;2023-02-15T02:36:24;6.35;;;4.50;;
73113;SDS011;61301;51.956;5.876;2023-02-15T02:45:08;4.05;;;2.88;;
73113;SDS011;61301;51.956;5.876;2023-02-15T02:50:23;4.35;;;3.05;;
73113;SDS011;61301;51.956;5.876;2023-02-15T02:52:53;6.32;;;4.40;;
73113;SDS011;61301;51.956;5.876;2023-02-15T03:00:31;6.05;;;4.32;;
73113;SDS011;61301;51.956;5.876;2023-02-15T03:03:06;11.43;;;6.68;;
73113;SDS011;61301;51.956;5.876;2023-02-15T03:05:48;10.23;;;6.90;;
73113;SDS011;61301;51.956;5.876;2023-02-15T03:08:19;8.52;;;5.85;;
73113;SDS011;61301;51.956;5.876;2023-02-15T03:10:52;7.15;;;4.68;;
73113;SDS011;61301;51.956;5.876;2023-02-15T03:13:21;6.40;;;4.57;;
73113;SDS011;61301;51.956;5.876;2023-02-15T03:15:48;5.18;;;4.03;;
73113;SDS011;61301;51.956;5.876;2023-02-15T03:18:35;6.22;;;4.68;;
73113;SDS011;61301;51.956;5.876;2023-02-15T03:21:08;6.43;;;3.78;;
73113;SDS011;61301;51.956;5.876;2023-02-15T03:24:01;7.45;;;5.05;;
73113;SDS011;61301;51.956;5.876;2023-02-15T03:26:32;5.30;;;3.60;;
73113;SDS011;61301;51.956;5.876;2023-02-15T03:29:02;5.50;;;3.72;;
73113;SDS011;61301;51.956;5.876;2023-02-15T03:31:32;5.20;;;4.10;;
73113;SDS011;61301;51.956;5.876;2023-02-15T03:34:04;6.60;;;4.28;;
73113;SDS011;61301;51.956;5.876;2023-02-15T03:42:10;7.20;;;4.78;;
73113;SDS011;61301;51.956;5.876;2023-02-15T03:44:51;9.18;;;5.15;;
73113;SDS011;61301;51.956;5.876;2023-02-15T03:47:28;10.85;;;7.60;;
73113;SDS011;61301;51.956;5.876;2023-02-15T03:50:02;15.30;;;10.70;;
73113;SDS011;61301;51.956;5.876;2023-02-15T03:52:53;10.65;;;6.32;;
73113;SDS011;61301;51.956;5.876;2023-02-15T03:55:21;6.60;;;4.72;;
73113;SDS011;61301;51.956;5.876;2023-02-15T03:57:47;10.05;;;6.80;;
73113;SDS011;61301;51.956;5.876;2023-02-15T04:00:33;8.93;;;5.30;;
73113;SDS011;61301;51.956;5.876;2023-02-15T04:03:22;7.20;;;4.93;;
73113;SDS011;61301;51.956;5.876;2023-02-15T04:06:00;8.80;;;5.55;;
73113;SDS011;61301;51.956;5.876;2023-02-15T04:08:28;9.65;;;6.70;;
73113;SDS011;61301;51.956;5.876;2023-02-15T04:11:13;8.98;;;6.53;;
73113;SDS011;61301;51.956;5.876;2023-02-15T04:13:39;8.82;;;6.60;;
73113;SDS011;61301;51.956;5.876;2023-02-15T04:16:05;7.32;;;4.90;;
73113;SDS011;61301;51.956;5.876;2023-02-15T04:18:32;7.03;;;4.90;;
73113;SDS011;61301;51.956;5.876;2023-02-15T04:21:18;11.68;;;8.27;;
73113;SDS011;61301;51.956;5.876;2023-02-15T04:24:04;10.93;;;6.95;;
73113;SDS011;61301;51.956;5.876;2023-02-15T04:26:49;10.55;;;7.50;;
73113;SDS011;61301;51.956;5.876;2023-02-15T04:29:18;10.70;;;7.18;;
73113;SDS011;61301;51.956;5.876;2023-02-15T04:31:46;9.45;;;6.00;;
73113;SDS011;61301;51.956;5.876;2023-02-15T04:34:12;9.68;;;6.13;;
73113;SDS011;61301;51.956;5.876;2023-02-15T04:36:39;11.68;;;7.28;;
73113;SDS011;61301;51.956;5.876;2023-02-15T04:39:05;7.55;;;4.88;;
73113;SDS011;61301;51.956;5.876;2023-02-15T04:41:32;5.82;;;3.83;;
73113;SDS011;61301;51.956;5.876;2023-02-15T04:43:58;5.00;;;3.40;;
73113;SDS011;61301;51.956;5.876;2023-02-15T04:46:26;6.18;;;4.22;;
73113;SDS011;61301;51.956;5.876;2023-02-15T04:48:53;6.03;;;3.95;;
73113;SDS011;61301;51.956;5.876;2023-02-15T04:51:19;4.65;;;2.90;;
73113;SDS011;61301;51.956;5.876;2023-02-15T04:53:45;4.72;;;3.25;;
73113;SDS011;61301;51.956;5.876;2023-02-15T04:56:11;3.75;;;2.67;;
73113;SDS011;61301;51.956;5.876;2023-02-15T04:58:38;5.88;;;3.45;;
73113;SDS011;61301;51.956;5.876;2023-02-15T05:01:09;12.50;;;8.38;;
73113;SDS011;61301;51.956;5.876;2023-02-15T05:03:36;11.30;;;6.88;;
73113;SDS011;61301;51.956;5.876;2023-02-15T05:06:02;8.15;;;5.00;;
73113;SDS011;61301;51.956;5.876;2023-02-15T05:08:29;6.53;;;4.38;;
73113;SDS011;61301;51.956;5.876;2023-02-15T05:10:56;8.00;;;4.70;;
73113;SDS011;61301;51.956;5.876;2023-02-15T05:13:22;8.93;;;5.78;;
73113;SDS011;61301;51.956;5.876;2023-02-15T05:15:49;11.43;;;7.03;;
73113;SDS011;61301;51.956;5.876;2023-02-15T05:18:16;12.70;;;8.70;;
73113;SDS011;61301;51.956;5.876;2023-02-15T05:20:43;11.13;;;7.38;;
73113;SDS011;61301;51.956;5.876;2023-02-15T05:23:09;11.90;;;8.05;;
73113;SDS011;61301;51.956;5.876;2023-02-15T05:25:35;16.73;;;10.60;;
73113;SDS011;61301;51.956;5.876;2023-02-15T05:28:21;12.02;;;7.95;;
73113;SDS011;61301;51.956;5.876;2023-02-15T05:30:52;10.25;;;7.03;;
73113;SDS011;61301;51.956;5.876;2023-02-15T05:33:38;11.55;;;8.35;;
73113;SDS011;61301;51.956;5.876;2023-02-15T05:36:05;8.13;;;5.55;;
73113;SDS011;61301;51.956;5.876;2023-02-15T05:38:31;6.95;;;5.15;;
73113;SDS011;61301;51.956;5.876;2023-02-15T05:40:57;7.00;;;4.28;;
73113;SDS011;61301;51.956;5.876;2023-02-15T05:43:27;7.40;;;4.47;;
73113;SDS011;61301;51.956;5.876;2023-02-15T05:45:54;6.10;;;4.15;;
73113;SDS011;61301;51.956;5.876;2023-02-15T05:48:21;4.63;;;3.00;;
73113;SDS011;61301;51.956;5.876;2023-02-15T05:50:56;5.70;;;3.50;;
73113;SDS011;61301;51.956;5.876;2023-02-15T05:53:27;8.63;;;5.53;;
73113;SDS011;61301;51.956;5.876;2023-02-15T05:55:54;8.55;;;5.70;;
73113;SDS011;61301;51.956;5.876;2023-02-15T05:58:27;13.90;;;8.77;;
73113;SDS011;61301;51.956;5.876;2023-02-15T06:00:55;11.25;;;7.25;;
73113;SDS011;61301;51.956;5.876;2023-02-15T06:03:21;9.68;;;5.97;;
73113;SDS011;61301;51.956;5.876;2023-02-15T06:05:48;5.90;;;4.50;;
73113;SDS011;61301;51.956;5.876;2023-02-15T06:08:14;6.20;;;4.55;;
73113;SDS011;61301;51.956;5.876;2023-02-15T06:10:40;9.02;;;5.43;;
73113;SDS011;61301;51.956;5.876;2023-02-15T06:13:06;8.43;;;6.50;;
73113;SDS011;61301;51.956;5.876;2023-02-15T06:15:32;7.07;;;4.63;;
73113;SDS011;61301;51.956;5.876;2023-02-15T06:17:59;9.68;;;6.20;;
73113;SDS011;61301;51.956;5.876;2023-02-15T06:20:25;6.93;;;4.97;;
73113;SDS011;61301;51.956;5.876;2023-02-15T06:22:51;10.70;;;6.30;;
73113;SDS011;61301;51.956;5.876;2023-02-15T06:25:17;6.70;;;4.25;;
73113;SDS011;61301;51.956;5.876;2023-02-15T06:27:43;8.15;;;4.82;;
73113;SDS011;61301;51.956;5.876;2023-02-15T06:30:09;9.32;;;6.18;;
73113;SDS011;61301;51.956;5.876;2023-02-15T06:32:36;14.63;;;8.95;;
73113;SDS011;61301;51.956;5.876;2023-02-15T06:35:02;14.23;;;9.48;;
73113;SDS011;61301;51.956;5.876;2023-02-15T06:37:29;11.93;;;8.02;;
73113;SDS011;61301;51.956;5.876;2023-02-15T06:39:55;15.38;;;9.93;;
73113;SDS011;61301;51.956;5.876;2023-02-15T06:42:21;12.70;;;8.15;;
73113;SDS011;61301;51.956;5.876;2023-02-15T06:44:48;11.95;;;6.80;;
73113;SDS011;61301;51.956;5.876;2023-02-15T06:47:14;8.98;;;5.70;;
73113;SDS011;61301;51.956;5.876;2023-02-15T06:49:40;12.32;;;7.65;;
73113;SDS011;61301;51.956;5.876;2023-02-15T06:52:06;13.80;;;9.68;;
73113;SDS011;61301;51.956;5.876;2023-02-15T06:54:32;15.77;;;9.40;;
73113;SDS011;61301;51.956;5.876;2023-02-15T06:56:57;17.20;;;10.82;;
73113;SDS011;61301;51.956;5.876;2023-02-15T06:59:24;17.52;;;11.00;;
73113;SDS011;61301;51.956;5.876;2023-02-15T07:01:50;17.10;;;9.23;;
73113;SDS011;61301;51.956;5.876;2023-02-15T07:04:15;14.70;;;9.23;;
73113;SDS011;61301;51.956;5.876;2023-02-15T07:06:41;11.50;;;6.95;;
73113;SDS011;61301;51.956;5.876;2023-02-15T07:09:07;9.20;;;5.68;;
73113;SDS011;61301;51.956;5.876;2023-02-15T07:11:34;9.77;;;6.50;;
73113;SDS011;61301;51.956;5.876;2023-02-15T07:14:19;17.60;;;10.68;;
73113;SDS011;61301;51.956;5.876;2023-02-15T07:16:44;17.35;;;12.05;;
73113;SDS011;61301;51.956;5.876;2023-02-15T07:19:10;14.10;;;9.32;;
73113;SDS011;61301;51.956;5.876;2023-02-15T07:21:36;14.75;;;9.13;;
73113;SDS011;61301;51.956;5.876;2023-02-15T07:24:02;18.55;;;12.43;;
73113;SDS011;61301;51.956;5.876;2023-02-15T07:26:30;21.05;;;12.85;;
73113;SDS011;61301;51.956;5.876;2023-02-15T07:28:57;20.20;;;12.35;;
73113;SDS011;61301;51.956;5.876;2023-02-15T07:31:22;19.00;;;12.02;;
73113;SDS011;61301;51.956;5.876;2023-02-15T07:33:49;19.63;;;12.35;;
73113;SDS011;61301;51.956;5.876;2023-02-15T07:36:15;19.58;;;11.75;;
73113;SDS011;61301;51.956;5.876;2023-02-15T07:38:41;20.35;;;12.85;;
73113;SDS011;61301;51.956;5.876;2023-02-15T07:41:09;24.67;;;15.38;;
73113;SDS011;61301;51.956;5.876;2023-02-15T07:43:38;24.55;;;15.45;;
73113;SDS011;61301;51.956;5.876;2023-02-15T07:46:08;24.70;;;15.18;;
73113;SDS011;61301;51.956;5.876;2023-02-15T07:48:37;27.90;;;16.92;;
73113;SDS011;61301;51.956;5.876;2023-02-15T07:51:05;24.90;;;15.43;;
73113;SDS011;61301;51.956;5.876;2023-02-15T07:53:33;27.27;;;15.65;;
73113;SDS011;61301;51.956;5.876;2023-02-15T07:55:59;27.77;;;17.73;;
73113;SDS011;61301;51.956;5.876;2023-02-15T07:58:26;22.92;;;14.90;;
73113;SDS011;61301;51.956;5.876;2023-02-15T08:01:12;23.83;;;13.65;;
73113;SDS011;61301;51.956;5.876;2023-02-15T08:03:39;21.92;;;14.77;;
73113;SDS011;61301;51.956;5.876;2023-02-15T08:06:06;22.77;;;13.65;;
73113;SDS011;61301;51.956;5.876;2023-02-15T08:08:35;26.88;;;17.10;;
73113;SDS011;61301;51.956;5.876;2023-02-15T08:13:52;28.30;;;17.63;;
73113;SDS011;61301;51.956;5.876;2023-02-15T08:16:23;26.33;;;15.80;;
73113;SDS011;61301;51.956;5.876;2023-02-15T08:18:54;23.58;;;15.40;;
73113;SDS011;61301;51.956;5.876;2023-02-15T08:21:22;31.33;;;17.98;;
73113;SDS011;61301;51.956;5.876;2023-02-15T08:23:48;29.70;;;17.60;;
73113;SDS011;61301;51.956;5.876;2023-02-15T08:26:14;25.20;;;14.90;;
73113;SDS011;61301;51.956;5.876;2023-02-15T08:28:42;26.15;;;15.57;;
73113;SDS011;61301;51.956;5.876;2023-02-15T08:31:09;21.67;;;14.02;;
73113;SDS011;61301;51.956;5.876;2023-02-15T08:33:37;19.88;;;12.52;;
73113;SDS011;61301;51.956;5.876;2023-02-15T08:36:05;31.10;;;19.23;;
73113;SDS011;61301;51.956;5.876;2023-02-15T08:38:33;24.92;;;15.05;;
73113;SDS011;61301;51.956;5.876;2023-02-15T08:44:00;25.40;;;16.73;;
73113;SDS011;61301;51.956;5.876;2023-02-15T08:46:30;29.88;;;18.88;;
73113;SDS011;61301;51.956;5.876;2023-02-15T08:48:58;25.15;;;16.35;;
73113;SDS011;61301;51.956;5.876;2023-02-15T08:51:28;33.17;;;20.58;;
73113;SDS011;61301;51.956;5.876;2023-02-15T08:53:59;32.90;;;20.95;;
73113;SDS011;61301;51.956;5.876;2023-02-15T08:56:28;32.85;;;20.70;;
73113;SDS011;61301;51.956;5.876;2023-02-15T08:58:57;29.23;;;18.88;;
73113;SDS011;61301;51.956;5.876;2023-02-15T09:01:24;34.33;;;22.75;;
73113;SDS011;61301;51.956;5.876;2023-02-15T09:03:54;33.50;;;23.20;;
73113;SDS011;61301;51.956;5.876;2023-02-15T09:06:22;31.35;;;20.88;;
73113;SDS011;61301;51.956;5.876;2023-02-15T09:08:49;32.88;;;21.77;;
73113;SDS011;61301;51.956;5.876;2023-02-15T09:11:17;30.63;;;20.45;;
73113;SDS011;61301;51.956;5.876;2023-02-15T09:13:57;34.50;;;21.95;;
73113;SDS011;61301;51.956;5.876;2023-02-15T09:16:26;25.83;;;16.73;;
73113;SDS011;61301;51.956;5.876;2023-02-15T09:18:53;31.77;;;20.08;;
73113;SDS011;61301;51.956;5.876;2023-02-15T09:21:21;33.30;;;20.98;;
73113;SDS011;61301;51.956;5.876;2023-02-15T09:23:49;32.10;;;19.77;;
73113;SDS011;61301;51.956;5.876;2023-02-15T09:26:17;27.63;;;17.75;;
73113;SDS011;61301;51.956;5.876;2023-02-15T09:28:45;31.73;;;21.30;;
73113;SDS011;61301;51.956;5.876;2023-02-15T09:31:13;25.15;;;15.95;;
73113;SDS011;61301;51.956;5.876;2023-02-15T09:33:47;32.13;;;19.77;;
73113;SDS011;61301;51.956;5.876;2023-02-15T09:38:41;23.52;;;14.73;;
73113;SDS011;61301;51.956;5.876;2023-02-15T09:41:18;27.52;;;19.08;;
73113;SDS011;61301;51.956;5.876;2023-02-15T09:49:47;27.35;;;18.50;;
73113;SDS011;61301;51.956;5.876;2023-02-15T10:10:59;32.63;;;22.27;;
73113;SDS011;61301;51.956;5.876;2023-02-15T10:14:13;29.20;;;19.30;;
73113;SDS011;61301;51.956;5.876;2023-02-15T10:17:08;24.42;;;16.42;;
73113;SDS011;61301;51.956;5.876;2023-02-15T10:28:31;32.40;;;21.25;;
73113;SDS011;61301;51.956;5.876;2023-02-15T10:39:37;29.10;;;19.35;;
73113;SDS011;61301;51.956;5.876;2023-02-15T10:45:35;32.42;;;22.48;;
73113;SDS011;61301;51.956;5.876;2023-02-15T10:48:26;27.58;;;18.33;;
73113;SDS011;61301;51.956;5.876;2023-02-15T10:50:59;29.52;;;18.80;;
73113;SDS011;61301;51.956;5.876;2023-02-15T10:56:28;35.75;;;21.63;;
73113;SDS011;61301;51.956;5.876;2023-02-15T10:59:29;25.77;;;17.88;;
73113;SDS011;61301;51.956;5.876;2023-02-15T11:04:51;33.58;;;20.88;;
73113;SDS011;61301;51.956;5.876;2023-02-15T11:07:26;32.70;;;19.95;;
73113;SDS011;61301;51.956;5.876;2023-02-15T11:12:56;30.95;;;21.23;;
73113;SDS011;61301;51.956;5.876;2023-02-15T11:18:24;31.48;;;19.55;;
73113;SDS011;61301;51.956;5.876;2023-02-15T11:23:40;33.42;;;21.23;;
73113;SDS011;61301;51.956;5.876;2023-02-15T11:29:37;36.97;;;21.25;;
73113;SDS011;61301;51.956;5.876;2023-02-15T11:32:26;31.33;;;20.70;;
73113;SDS011;61301;51.956;5.876;2023-02-15T11:40:20;33.40;;;21.60;;
73113;SDS011;61301;51.956;5.876;2023-02-15T11:42:51;30.27;;;20.85;;
73113;SDS011;61301;51.956;5.876;2023-02-15T11:45:26;29.52;;;20.23;;
73113;SDS011;61301;51.956;5.876;2023-02-15T11:47:55;29.50;;;21.00;;
73113;SDS011;61301;51.956;5.876;2023-02-15T11:50:24;35.00;;;22.35;;
73113;SDS011;61301;51.956;5.876;2023-02-15T11:52:52;32.85;;;21.30;;
73113;SDS011;61301;51.956;5.876;2023-02-15T11:55:21;31.58;;;21.90;;
73113;SDS011;61301;51.956;5.876;2023-02-15T11:58:00;34.03;;;21.90;;
73113;SDS011;61301;51.956;5.876;2023-02-15T12:00:32;32.57;;;20.77;;
73113;SDS011;61301;51.956;5.876;2023-02-15T12:03:19;37.22;;;22.23;;
73113;SDS011;61301;51.956;5.876;2023-02-15T12:05:47;29.95;;;20.33;;
73113;SDS011;61301;51.956;5.876;2023-02-15T12:08:19;37.05;;;23.55;;
73113;SDS011;61301;51.956;5.876;2023-02-15T12:10:52;32.30;;;21.55;;
73113;SDS011;61301;51.956;5.876;2023-02-15T12:13:33;32.83;;;21.65;;
73113;SDS011;61301;51.956;5.876;2023-02-15T12:16:04;31.17;;;22.10;;
73113;SDS011;61301;51.956;5.876;2023-02-15T12:21:09;34.50;;;21.27;;
73113;SDS011;61301;51.956;5.876;2023-02-15T12:27:04;31.38;;;20.75;;
73113;SDS011;61301;51.956;5.876;2023-02-15T12:29:46;36.60;;;22.95;;
73113;SDS011;61301;51.956;5.876;2023-02-15T12:32:19;31.88;;;21.42;;
73113;SDS011;61301;51.956;5.876;2023-02-15T12:34:48;30.70;;;20.98;;
73113;SDS011;61301;51.956;5.876;2023-02-15T12:39:51;35.08;;;21.83;;
73113;SDS011;61301;51.956;5.876;2023-02-15T12:42:24;39.22;;;23.73;;
73113;SDS011;61301;51.956;5.876;2023-02-15T12:47:46;35.20;;;24.40;;
73113;SDS011;61301;51.956;5.876;2023-02-15T12:50:21;39.95;;;24.98;;
73113;SDS011;61301;51.956;5.876;2023-02-15T12:53:02;34.92;;;22.35;;
73113;SDS011;61301;51.956;5.876;2023-02-15T12:55:33;32.97;;;23.08;;
73113;SDS011;61301;51.956;5.876;2023-02-15T12:58:06;39.85;;;24.77;;
73113;SDS011;61301;51.956;5.876;2023-02-15T13:00:33;35.75;;;23.85;;
73113;SDS011;61301;51.956;5.876;2023-02-15T13:03:00;32.72;;;22.67;;
73113;SDS011;61301;51.956;5.876;2023-02-15T13:05:37;34.35;;;22.45;;
73113;SDS011;61301;51.956;5.876;2023-02-15T13:10:52;30.38;;;21.05;;
73113;SDS011;61301;51.956;5.876;2023-02-15T13:13:21;35.03;;;23.88;;
73113;SDS011;61301;51.956;5.876;2023-02-15T13:15:51;37.47;;;21.75;;
73113;SDS011;61301;51.956;5.876;2023-02-15T13:18:21;36.72;;;25.58;;
73113;SDS011;61301;51.956;5.876;2023-02-15T13:21:00;33.95;;;21.92;;
73113;SDS011;61301;51.956;5.876;2023-02-15T13:23:35;40.40;;;24.65;;
73113;SDS011;61301;51.956;5.876;2023-02-15T13:26:02;37.58;;;24.92;;
73113;SDS011;61301;51.956;5.876;2023-02-15T13:28:40;32.22;;;21.55;;
73113;SDS011;61301;51.956;5.876;2023-02-15T13:31:14;36.33;;;23.10;;
73113;SDS011;61301;51.956;5.876;2023-02-15T13:34:03;33.03;;;22.58;;
73113;SDS011;61301;51.956;5.876;2023-02-15T13:39:42;33.42;;;21.88;;
73113;SDS011;61301;51.956;5.876;2023-02-15T14:01:26;33.22;;;22.40;;
73113;SDS011;61301;51.956;5.876;2023-02-15T14:20:59;36.55;;;22.58;;
73113;SDS011;61301;51.956;5.876;2023-02-15T14:31:04;36.22;;;23.40;;
73113;SDS011;61301;51.956;5.876;2023-02-15T14:33:39;38.47;;;24.77;;
73113;SDS011;61301;51.956;5.876;2023-02-15T14:36:07;41.65;;;24.95;;
73113;SDS011;61301;51.956;5.876;2023-02-15T14:41:12;41.25;;;24.77;;
73113;SDS011;61301;51.956;5.876;2023-02-15T14:43:48;39.17;;;24.02;;
73113;SDS011;61301;51.956;5.876;2023-02-15T14:54:09;39.88;;;25.67;;
73113;SDS011;61301;51.956;5.876;2023-02-15T14:56:35;40.20;;;25.38;;
73113;SDS011;61301;51.956;5.876;2023-02-15T14:59:25;36.42;;;23.88;;
73113;SDS011;61301;51.956;5.876;2023-02-15T15:04:33;35.17;;;24.25;;
73113;SDS011;61301;51.956;5.876;2023-02-15T15:07:09;37.65;;;24.63;;
73113;SDS011;61301;51.956;5.876;2023-02-15T15:09:45;34.42;;;22.10;;
73113;SDS011;61301;51.956;5.876;2023-02-15T15:14:52;35.53;;;23.02;;
73113;SDS011;61301;51.956;5.876;2023-02-15T15:22:41;41.03;;;24.98;;
73113;SDS011;61301;51.956;5.876;2023-02-15T15:25:09;36.75;;;23.23;;
73113;SDS011;61301;51.956;5.876;2023-02-15T15:27:54;35.10;;;21.77;;
73113;SDS011;61301;51.956;5.876;2023-02-15T15:49:35;19.30;;;12.50;;
73113;SDS011;61301;51.956;5.876;2023-02-15T15:52:17;18.83;;;12.38;;
73113;SDS011;61301;51.956;5.876;2023-02-15T15:54:46;23.27;;;14.40;;
73113;SDS011;61301;51.956;5.876;2023-02-15T15:57:18;23.45;;;15.55;;
73113;SDS011;61301;51.956;5.876;2023-02-15T15:59:51;21.98;;;13.55;;
73113;SDS011;61301;51.956;5.876;2023-02-15T16:02:18;24.63;;;15.77;;
73113;SDS011;61301;51.956;5.876;2023-02-15T16:04:45;27.73;;;18.08;;
73113;SDS011;61301;51.956;5.876;2023-02-15T16:09:58;30.30;;;20.08;;
73113;SDS011;61301;51.956;5.876;2023-02-15T16:12:26;30.10;;;19.13;;
73113;SDS011;61301;51.956;5.876;2023-02-15T16:14:54;35.42;;;21.48;;
73113;SDS011;61301;51.956;5.876;2023-02-15T16:17:25;26.95;;;17.80;;
73113;SDS011;61301;51.956;5.876;2023-02-15T16:19:58;29.10;;;17.70;;
73113;SDS011;61301;51.956;5.876;2023-02-15T16:22:46;30.30;;;18.63;;
73113;SDS011;61301;51.956;5.876;2023-02-15T16:25:31;20.98;;;13.40;;
73113;SDS011;61301;51.956;5.876;2023-02-15T16:28:05;13.55;;;9.30;;
73113;SDS011;61301;51.956;5.876;2023-02-15T16:30:33;22.38;;;12.88;;
73113;SDS011;61301;51.956;5.876;2023-02-15T16:33:05;23.20;;;14.48;;
73113;SDS011;61301;51.956;5.876;2023-02-15T16:35:37;22.10;;;13.80;;
73113;SDS011;61301;51.956;5.876;2023-02-15T16:38:05;16.30;;;10.38;;
73113;SDS011;61301;51.956;5.876;2023-02-15T16:40:46;18.30;;;11.50;;
73113;SDS011;61301;51.956;5.876;2023-02-15T16:43:17;26.90;;;16.35;;
73113;SDS011;61301;51.956;5.876;2023-02-15T16:45:46;29.52;;;18.17;;
73113;SDS011;61301;51.956;5.876;2023-02-15T16:48:15;31.25;;;20.27;;
73113;SDS011;61301;51.956;5.876;2023-02-15T16:50:47;34.92;;;23.08;;
73113;SDS011;61301;51.956;5.876;2023-02-15T16:53:25;37.67;;;22.08;;
73113;SDS011;61301;51.956;5.876;2023-02-15T16:55:54;33.85;;;20.45;;
73113;SDS011;61301;51.956;5.876;2023-02-15T16:58:26;22.73;;;14.82;;
73113;SDS011;61301;51.956;5.876;2023-02-15T17:01:01;20.98;;;12.98;;
73113;SDS011;61301;51.956;5.876;2023-02-15T17:03:28;29.17;;;19.13;;
73113;SDS011;61301;51.956;5.876;2023-02-15T17:05:55;37.80;;;24.08;;
73113;SDS011;61301;51.956;5.876;2023-02-15T17:08:25;34.78;;;23.23;;
73113;SDS011;61301;51.956;5.876;2023-02-15T17:13:25;40.05;;;25.98;;
73113;SDS011;61301;51.956;5.876;2023-02-15T17:20:58;36.47;;;23.52;;
73113;SDS011;61301;51.956;5.876;2023-02-15T17:23:28;36.50;;;23.70;;
73113;SDS011;61301;51.956;5.876;2023-02-15T17:25:57;39.17;;;23.58;;
73113;SDS011;61301;51.956;5.876;2023-02-15T17:28:27;35.03;;;22.05;;
73113;SDS011;61301;51.956;5.876;2023-02-15T17:30:55;34.20;;;20.23;;
73113;SDS011;61301;51.956;5.876;2023-02-15T17:39:33;37.20;;;23.92;;
73113;SDS011;61301;51.956;5.876;2023-02-15T17:41:47;37.13;;;19.90;;
73113;SDS011;61301;51.956;5.876;2023-02-15T17:44:13;41.67;;;26.05;;
73113;SDS011;61301;51.956;5.876;2023-02-15T17:46:40;40.70;;;26.08;;
73113;SDS011;61301;51.956;5.876;2023-02-15T17:49:10;37.63;;;24.65;;
73113;SDS011;61301;51.956;5.876;2023-02-15T17:51:47;34.72;;;23.10;;
73113;SDS011;61301;51.956;5.876;2023-02-15T17:54:13;43.05;;;26.48;;
73113;SDS011;61301;51.956;5.876;2023-02-15T17:56:58;44.80;;;26.63;;
73113;SDS011;61301;51.956;5.876;2023-02-15T17:59:30;41.30;;;25.30;;
73113;SDS011;61301;51.956;5.876;2023-02-15T18:01:56;39.60;;;23.80;;
73113;SDS011;61301;51.956;5.876;2023-02-15T18:04:40;40.80;;;24.02;;
73113;SDS011;61301;51.956;5.876;2023-02-15T18:07:25;36.42;;;21.80;;
73113;SDS011;61301;51.956;5.876;2023-02-15T18:10:17;33.28;;;21.05;;
73113;SDS011;61301;51.956;5.876;2023-02-15T18:13:02;21.98;;;13.35;;
73113;SDS011;61301;51.956;5.876;2023-02-15T18:15:28;14.38;;;9.35;;
73113;SDS011;61301;51.956;5.876;2023-02-15T18:17:55;12.73;;;8.38;;
73113;SDS011;61301;51.956;5.876;2023-02-15T18:20:22;11.82;;;7.15;;
73113;SDS011;61301;51.956;5.876;2023-02-15T18:22:52;10.88;;;7.38;;
73113;SDS011;61301;51.956;5.876;2023-02-15T18:25:20;11.63;;;7.85;;
73113;SDS011;61301;51.956;5.876;2023-02-15T18:27:48;20.73;;;12.88;;
73113;SDS011;61301;51.956;5.876;2023-02-15T18:30:15;15.18;;;10.00;;
73113;SDS011;61301;51.956;5.876;2023-02-15T18:32:43;11.15;;;7.55;;
73113;SDS011;61301;51.956;5.876;2023-02-15T18:35:20;12.15;;;7.80;;
73113;SDS011;61301;51.956;5.876;2023-02-15T18:37:48;16.02;;;10.00;;
73113;SDS011;61301;51.956;5.876;2023-02-15T18:40:20;20.52;;;13.93;;
73113;SDS011;61301;51.956;5.876;2023-02-15T18:42:48;22.80;;;13.95;;
73113;SDS011;61301;51.956;5.876;2023-02-15T18:45:18;19.23;;;10.88;;
73113;SDS011;61301;51.956;5.876;2023-02-15T18:47:47;13.68;;;8.18;;
73113;SDS011;61301;51.956;5.876;2023-02-15T18:50:14;11.85;;;7.85;;
73113;SDS011;61301;51.956;5.876;2023-02-15T18:52:44;8.30;;;5.03;;